sensor_id;sensor_type;location;lat;lon;timestamp;pressure;altitude;pressure_sealevel;temperature;humidity
48668;BME280;34453;52.198;5.004;2023-04-23T00:02:25;100919.78;;;8.41;100.00
48668;BME280;34453;52.198;5.004;2023-04-23T00:04:51;100913.94;;;8.37;100.00
48668;BME280;34453;52.198;5.004;2023-04-23T00:07:20;100909.56;;;8.38;100.00
48668;BME280;34453;52.198;5.004;2023-04-23T00:09:46;100917.53;;;8.36;100.00
48668;BME280;34453;52.198;5.004;2023-04-23T00:12:12;100914.78;;;8.38;100.00
48668;BME280;34453;52.198;5.004;2023-04-23T00:14:37;100899.38;;;8.35;100.00
48668;BME280;34453;52.198;5.004;2023-04-23T00:17:03;100900.00;;;8.27;100.00
48668;BME280;34453;52.198;5.004;2023-04-23T00:19:28;100895.50;;;8.29;100.00
48668;BME280;34453;52.198;5.004;2023-04-23T00:21:54;100901.28;;;8.33;100.00
48668;BME280;34453;52.198;5.004;2023-04-23T00:24:19;100899.50;;;8.33;100.00
48668;BME280;34453;52.198;5.004;2023-04-23T00:26:44;100903.09;;;8.32;100.00
48668;BME280;34453;52.198;5.004;2023-04-23T00:29:10;100901.28;;;8.33;100.00
48668;BME280;34453;52.198;5.004;2023-04-23T00:31:35;100892.28;;;8.37;100.00
48668;BME280;34453;52.198;5.004;2023-04-23T00:34:01;100893.22;;;8.36;100.00
48668;BME280;34453;52.198;5.004;2023-04-23T00:36:27;100889.78;;;8.35;100.00
48668;BME280;34453;52.198;5.004;2023-04-23T00:38:52;100894.06;;;8.36;100.00
48668;BME280;34453;52.198;5.004;2023-04-23T00:41:18;100890.59;;;8.36;100.00
48668;BME280;34453;52.198;5.004;2023-04-23T00:43:43;100883.28;;;8.41;100.00
48668;BME280;34453;52.198;5.004;2023-04-23T00:46:10;100877.81;;;8.44;100.00
48668;BME280;34453;52.198;5.004;2023-04-23T00:48:36;100876.16;;;8.43;100.00
48668;BME280;34453;52.198;5.004;2023-04-23T00:51:05;100871.13;;;8.51;100.00
48668;BME280;34453;52.198;5.004;2023-04-23T00:53:31;100865.22;;;8.49;100.00
48668;BME280;34453;52.198;5.004;2023-04-23T00:55:57;100862.50;;;8.50;100.00
48668;BME280;34453;52.198;5.004;2023-04-23T00:58:23;100865.78;;;8.53;100.00
48668;BME280;34453;52.198;5.004;2023-04-23T01:00:49;100857.00;;;8.54;100.00
48668;BME280;34453;52.198;5.004;2023-04-23T01:03:16;100859.13;;;8.60;100.00
48668;BME280;34453;52.198;5.004;2023-04-23T01:05:46;100856.50;;;8.60;100.00
48668;BME280;34453;52.198;5.004;2023-04-23T01:08:14;100852.25;;;8.59;100.00
48668;BME280;34453;52.198;5.004;2023-04-23T01:10:42;100845.94;;;8.61;100.00
48668;BME280;34453;52.198;5.004;2023-04-23T01:13:08;100849.97;;;8.65;100.00
48668;BME280;34453;52.198;5.004;2023-04-23T01:15:33;100844.75;;;8.65;100.00
48668;BME280;34453;52.198;5.004;2023-04-23T01:17:59;100850.50;;;8.69;100.00
48668;BME280;34453;52.198;5.004;2023-04-23T01:20:24;100841.75;;;8.70;100.00
48668;BME280;34453;52.198;5.004;2023-04-23T01:22:50;100844.25;;;8.71;100.00
48668;BME280;34453;52.198;5.004;2023-04-23T01:25:16;100838.44;;;8.68;100.00
48668;BME280;34453;52.198;5.004;2023-04-23T01:27:42;100835.72;;;8.69;100.00
48668;BME280;34453;52.198;5.004;2023-04-23T01:30:08;100825.41;;;8.68;100.00
48668;BME280;34453;52.198;5.004;2023-04-23T01:32:34;100836.66;;;8.68;100.00
48668;BME280;34453;52.198;5.004;2023-04-23T01:35:00;100831.19;;;8.71;100.00
48668;BME280;34453;52.198;5.004;2023-04-23T01:37:27;100828.00;;;8.68;100.00
48668;BME280;34453;52.198;5.004;2023-04-23T01:39:53;100830.22;;;8.73;100.00
48668;BME280;34453;52.198;5.004;2023-04-23T01:42:19;100827.63;;;8.73;100.00
48668;BME280;34453;52.198;5.004;2023-04-23T01:44:44;100829.25;;;8.74;100.00
48668;BME280;34453;52.198;5.004;2023-04-23T01:47:10;100820.22;;;8.78;100.00
48668;BME280;34453;52.198;5.004;2023-04-23T01:49:35;100811.31;;;8.80;100.00
48668;BME280;34453;52.198;5.004;2023-04-23T01:52:01;100820.38;;;8.76;100.00
48668;BME280;34453;52.198;5.004;2023-04-23T01:54:26;100815.97;;;8.77;100.00
48668;BME280;34453;52.198;5.004;2023-04-23T01:56:52;100815.16;;;8.76;100.00
48668;BME280;34453;52.198;5.004;2023-04-23T01:59:20;100805.66;;;8.75;100.00
48668;BME280;34453;52.198;5.004;2023-04-23T02:01:46;100809.94;;;8.76;100.00
48668;BME280;34453;52.198;5.004;2023-04-23T02:04:13;100800.88;;;8.80;100.00
48668;BME280;34453;52.198;5.004;2023-04-23T02:06:40;100804.06;;;8.84;100.00
48668;BME280;34453;52.198;5.004;2023-04-23T02:09:06;100805.03;;;8.83;100.00
48668;BME280;34453;52.198;5.004;2023-04-23T02:11:32;100798.72;;;8.85;100.00
48668;BME280;34453;52.198;5.004;2023-04-23T02:13:57;100800.66;;;8.93;100.00
48668;BME280;34453;52.198;5.004;2023-04-23T02:16:23;100791.44;;;8.89;100.00
48668;BME280;34453;52.198;5.004;2023-04-23T02:18:48;100790.06;;;8.85;100.00
48668;BME280;34453;52.198;5.004;2023-04-23T02:21:14;100784.47;;;8.89;100.00
48668;BME280;34453;52.198;5.004;2023-04-23T02:23:40;100784.69;;;8.86;100.00
48668;BME280;34453;52.198;5.004;2023-04-23T02:26:05;100783.88;;;8.86;100.00
48668;BME280;34453;52.198;5.004;2023-04-23T02:28:32;100780.53;;;8.74;100.00
48668;BME280;34453;52.198;5.004;2023-04-23T02:30:58;100772.31;;;8.79;100.00
48668;BME280;34453;52.198;5.004;2023-04-23T02:33:23;100780.00;;;8.80;100.00
48668;BME280;34453;52.198;5.004;2023-04-23T02:35:50;100782.38;;;8.83;100.00
48668;BME280;34453;52.198;5.004;2023-04-23T02:38:15;100778.78;;;8.84;100.00
48668;BME280;34453;52.198;5.004;2023-04-23T02:40:41;100778.94;;;8.83;100.00
48668;BME280;34453;52.198;5.004;2023-04-23T02:43:07;100773.72;;;8.83;100.00
48668;BME280;34453;52.198;5.004;2023-04-23T02:45:32;100780.16;;;8.79;100.00
48668;BME280;34453;52.198;5.004;2023-04-23T02:47:58;100778.47;;;8.78;100.00
48668;BME280;34453;52.198;5.004;2023-04-23T02:50:23;100783.31;;;8.82;100.00
48668;BME280;34453;52.198;5.004;2023-04-23T02:52:49;100777.03;;;8.85;100.00
48668;BME280;34453;52.198;5.004;2023-04-23T02:55:14;100783.88;;;8.86;100.00
48668;BME280;34453;52.198;5.004;2023-04-23T02:57:40;100784.97;;;8.83;100.00
48668;BME280;34453;52.198;5.004;2023-04-23T03:00:06;100775.34;;;8.84;100.00
48668;BME280;34453;52.198;5.004;2023-04-23T03:02:32;100784.59;;;8.88;100.00
48668;BME280;34453;52.198;5.004;2023-04-23T03:04:58;100776.63;;;8.89;100.00
48668;BME280;34453;52.198;5.004;2023-04-23T03:07:23;100775.97;;;8.97;100.00
48668;BME280;34453;52.198;5.004;2023-04-23T03:09:49;100759.78;;;9.03;100.00
48668;BME280;34453;52.198;5.004;2023-04-23T03:12:14;100764.47;;;9.09;100.00
48668;BME280;34453;52.198;5.004;2023-04-23T03:14:40;100771.22;;;9.12;100.00
48668;BME280;34453;52.198;5.004;2023-04-23T03:17:05;100778.88;;;9.13;100.00
48668;BME280;34453;52.198;5.004;2023-04-23T03:19:31;100774.63;;;9.12;100.00
48668;BME280;34453;52.198;5.004;2023-04-23T03:21:57;100763.38;;;9.12;100.00
48668;BME280;34453;52.198;5.004;2023-04-23T03:24:23;100761.19;;;9.17;100.00
48668;BME280;34453;52.198;5.004;2023-04-23T03:26:48;100763.91;;;9.16;100.00
48668;BME280;34453;52.198;5.004;2023-04-23T03:29:14;100767.22;;;9.18;100.00
48668;BME280;34453;52.198;5.004;2023-04-23T03:31:39;100767.22;;;9.18;100.00
48668;BME280;34453;52.198;5.004;2023-04-23T03:34:05;100771.50;;;9.19;100.00
48668;BME280;34453;52.198;5.004;2023-04-23T03:36:30;100762.00;;;9.18;100.00
48668;BME280;34453;52.198;5.004;2023-04-23T03:38:56;100765.00;;;9.13;100.00
48668;BME280;34453;52.198;5.004;2023-04-23T03:41:21;100755.41;;;9.13;100.00
48668;BME280;34453;52.198;5.004;2023-04-23T03:43:47;100755.53;;;9.12;100.00
48668;BME280;34453;52.198;5.004;2023-04-23T03:46:12;100758.16;;;9.12;100.00
48668;BME280;34453;52.198;5.004;2023-04-23T03:48:38;100758.97;;;9.12;100.00
48668;BME280;34453;52.198;5.004;2023-04-23T03:51:03;100755.66;;;9.10;100.00
48668;BME280;34453;52.198;5.004;2023-04-23T03:53:29;100758.56;;;9.07;100.00
48668;BME280;34453;52.198;5.004;2023-04-23T03:55:54;100753.59;;;9.04;100.00
48668;BME280;34453;52.198;5.004;2023-04-23T03:58:19;100759.50;;;9.06;100.00
48668;BME280;34453;52.198;5.004;2023-04-23T04:00:45;100744.94;;;9.04;100.00
48668;BME280;34453;52.198;5.004;2023-04-23T04:03:11;100744.00;;;9.05;100.00
48668;BME280;34453;52.198;5.004;2023-04-23T04:05:36;100739.72;;;9.04;100.00
48668;BME280;34453;52.198;5.004;2023-04-23T04:08:02;100736.28;;;9.03;100.00
48668;BME280;34453;52.198;5.004;2023-04-23T04:10:29;100750.72;;;9.07;100.00
48668;BME280;34453;52.198;5.004;2023-04-23T04:12:55;100751.44;;;9.09;100.00
48668;BME280;34453;52.198;5.004;2023-04-23T04:15:20;100750.44;;;9.10;100.00
48668;BME280;34453;52.198;5.004;2023-04-23T04:17:46;100753.88;;;9.11;100.00
48668;BME280;34453;52.198;5.004;2023-04-23T04:20:12;100749.22;;;9.15;100.00
48668;BME280;34453;52.198;5.004;2023-04-23T04:22:38;100747.44;;;9.15;100.00
48668;BME280;34453;52.198;5.004;2023-04-23T04:25:03;100748.00;;;9.19;100.00
48668;BME280;34453;52.198;5.004;2023-04-23T04:27:29;100754.56;;;9.13;100.00
48668;BME280;34453;52.198;5.004;2023-04-23T04:29:58;100750.44;;;9.10;100.00
48668;BME280;34453;52.198;5.004;2023-04-23T04:32:23;100755.66;;;9.10;100.00
48668;BME280;34453;52.198;5.004;2023-04-23T04:34:49;100756.50;;;9.11;100.00
48668;BME280;34453;52.198;5.004;2023-04-23T04:37:15;100754.03;;;9.09;100.00
48668;BME280;34453;52.198;5.004;2023-04-23T04:39:40;100752.13;;;9.11;100.00
48668;BME280;34453;52.198;5.004;2023-04-23T04:42:06;100756.50;;;9.11;100.00
48668;BME280;34453;52.198;5.004;2023-04-23T04:44:32;100755.09;;;9.07;100.00
48668;BME280;34453;52.198;5.004;2023-04-23T04:46:57;100759.50;;;9.06;100.00
48668;BME280;34453;52.198;5.004;2023-04-23T04:49:23;100757.03;;;9.05;100.00
48668;BME280;34453;52.198;5.004;2023-04-23T04:51:48;100757.16;;;9.03;100.00
48668;BME280;34453;52.198;5.004;2023-04-23T04:54:14;100758.09;;;9.02;100.00
48668;BME280;34453;52.198;5.004;2023-04-23T04:56:39;100750.28;;;9.02;100.00
48668;BME280;34453;52.198;5.004;2023-04-23T04:59:05;100752.88;;;9.02;100.00
48668;BME280;34453;52.198;5.004;2023-04-23T05:01:31;100758.38;;;8.99;100.00
48668;BME280;34453;52.198;5.004;2023-04-23T05:03:58;100757.28;;;9.02;100.00
48668;BME280;34453;52.198;5.004;2023-04-23T05:06:23;100746.31;;;8.98;100.00
48668;BME280;34453;52.198;5.004;2023-04-23T05:08:49;100757.69;;;8.97;100.00
48668;BME280;34453;52.198;5.004;2023-04-23T05:11:16;100748.78;;;9.00;100.00
48668;BME280;34453;52.198;5.004;2023-04-23T05:13:43;100741.91;;;8.99;100.00
48668;BME280;34453;52.198;5.004;2023-04-23T05:16:09;100747.25;;;8.97;100.00
48668;BME280;34453;52.198;5.004;2023-04-23T05:18:36;100745.06;;;9.02;100.00
48668;BME280;34453;52.198;5.004;2023-04-23T05:21:01;100753.16;;;8.99;100.00
48668;BME280;34453;52.198;5.004;2023-04-23T05:23:27;100752.88;;;9.02;100.00
48668;BME280;34453;52.198;5.004;2023-04-23T05:25:52;100750.72;;;9.07;100.00
48668;BME280;34453;52.198;5.004;2023-04-23T05:28:20;100746.59;;;9.05;100.00
48668;BME280;34453;52.198;5.004;2023-04-23T05:30:45;100758.56;;;9.07;100.00
48668;BME280;34453;52.198;5.004;2023-04-23T05:33:11;100777.66;;;9.08;100.00
48668;BME280;34453;52.198;5.004;2023-04-23T05:35:36;100775.22;;;9.16;100.00
48668;BME280;34453;52.198;5.004;2023-04-23T05:38:02;100774.22;;;9.17;100.00
48668;BME280;34453;52.198;5.004;2023-04-23T05:40:29;100770.81;;;9.26;100.00
48668;BME280;34453;52.198;5.004;2023-04-23T05:42:57;100765.31;;;9.20;100.00
48668;BME280;34453;52.198;5.004;2023-04-23T05:45:22;100756.38;;;9.22;100.00
48668;BME280;34453;52.198;5.004;2023-04-23T05:47:47;100757.34;;;9.21;100.00
48668;BME280;34453;52.198;5.004;2023-04-23T05:50:13;100758.59;;;9.27;100.00
48668;BME280;34453;52.198;5.004;2023-04-23T05:52:38;100757.34;;;9.31;100.00
48668;BME280;34453;52.198;5.004;2023-04-23T05:55:05;100755.03;;;9.38;100.00
48668;BME280;34453;52.198;5.004;2023-04-23T05:57:32;100749.13;;;9.36;100.00
48668;BME280;34453;52.198;5.004;2023-04-23T05:59:57;100741.84;;;9.39;100.00
48668;BME280;34453;52.198;5.004;2023-04-23T06:02:23;100745.28;;;9.40;100.00
48668;BME280;34453;52.198;5.004;2023-04-23T06:04:49;100734.88;;;9.49;100.00
48668;BME280;34453;52.198;5.004;2023-04-23T06:07:14;100739.50;;;9.55;100.00
48668;BME280;34453;52.198;5.004;2023-04-23T06:09:40;100726.59;;;9.64;100.00
48668;BME280;34453;52.198;5.004;2023-04-23T06:12:06;100735.69;;;9.69;100.00
48668;BME280;34453;52.198;5.004;2023-04-23T06:14:31;100732.94;;;9.81;100.00
48668;BME280;34453;52.198;5.004;2023-04-23T06:16:56;100736.06;;;9.84;100.00
48668;BME280;34453;52.198;5.004;2023-04-23T06:19:22;100733.47;;;9.84;100.00
48668;BME280;34453;52.198;5.004;2023-04-23T06:21:50;100734.28;;;9.94;100.00
48668;BME280;34453;52.198;5.004;2023-04-23T06:24:16;100728.50;;;10.01;100.00
48668;BME280;34453;52.198;5.004;2023-04-23T06:26:41;100731.13;;;10.01;100.00
48668;BME280;34453;52.198;5.004;2023-04-23T06:29:07;100726.00;;;10.09;100.00
48668;BME280;34453;52.198;5.004;2023-04-23T06:31:32;100722.97;;;10.13;100.00
48668;BME280;34453;52.198;5.004;2023-04-23T06:33:58;100716.06;;;10.22;100.00
48668;BME280;34453;52.198;5.004;2023-04-23T06:36:23;100722.69;;;10.36;100.00
48668;BME280;34453;52.198;5.004;2023-04-23T06:38:48;100708.34;;;10.40;100.00
48668;BME280;34453;52.198;5.004;2023-04-23T06:41:14;100712.88;;;10.48;100.00
48668;BME280;34453;52.198;5.004;2023-04-23T06:43:41;100721.41;;;10.50;100.00
48668;BME280;34453;52.198;5.004;2023-04-23T06:46:06;100707.97;;;10.63;100.00
48668;BME280;34453;52.198;5.004;2023-04-23T06:48:31;100703.66;;;10.71;100.00
48668;BME280;34453;52.198;5.004;2023-04-23T06:50:58;100706.81;;;10.75;100.00
48668;BME280;34453;52.198;5.004;2023-04-23T06:53:23;100708.94;;;10.89;100.00
48668;BME280;34453;52.198;5.004;2023-04-23T06:55:49;100701.72;;;11.01;100.00
48668;BME280;34453;52.198;5.004;2023-04-23T06:58:16;100692.69;;;11.13;100.00
48668;BME280;34453;52.198;5.004;2023-04-23T07:00:41;100684.81;;;11.13;100.00
48668;BME280;34453;52.198;5.004;2023-04-23T07:03:07;100693.59;;;11.22;100.00
48668;BME280;34453;52.198;5.004;2023-04-23T07:05:32;100686.63;;;11.31;100.00
48668;BME280;34453;52.198;5.004;2023-04-23T07:07:57;100680.13;;;11.35;100.00
48668;BME280;34453;52.198;5.004;2023-04-23T07:10:23;100690.06;;;11.49;100.00
48668;BME280;34453;52.198;5.004;2023-04-23T07:12:49;100685.03;;;11.56;100.00
48668;BME280;34453;52.198;5.004;2023-04-23T07:15:14;100698.00;;;11.57;100.00
48668;BME280;34453;52.198;5.004;2023-04-23T07:17:40;100689.69;;;11.62;100.00
48668;BME280;34453;52.198;5.004;2023-04-23T07:20:06;100690.66;;;11.79;100.00
48668;BME280;34453;52.198;5.004;2023-04-23T07:22:33;100688.03;;;11.79;100.00
48668;BME280;34453;52.198;5.004;2023-04-23T07:25:00;100680.97;;;11.79;100.00
48668;BME280;34453;52.198;5.004;2023-04-23T07:27:25;100683.81;;;11.86;100.00
48668;BME280;34453;52.198;5.004;2023-04-23T07:29:51;100665.38;;;11.96;100.00
48668;BME280;34453;52.198;5.004;2023-04-23T07:32:17;100670.47;;;11.97;100.00
48668;BME280;34453;52.198;5.004;2023-04-23T07:34:42;100667.09;;;12.05;100.00
48668;BME280;34453;52.198;5.004;2023-04-23T07:37:07;100657.63;;;12.12;100.00
48668;BME280;34453;52.198;5.004;2023-04-23T07:39:33;100660.75;;;12.16;100.00
48668;BME280;34453;52.198;5.004;2023-04-23T07:41:59;100656.84;;;12.20;100.00
48668;BME280;34453;52.198;5.004;2023-04-23T07:44:26;100657.38;;;12.23;100.00
48668;BME280;34453;52.198;5.004;2023-04-23T07:46:51;100657.56;;;12.30;100.00
48668;BME280;34453;52.198;5.004;2023-04-23T07:49:17;100653.28;;;12.29;100.00
48668;BME280;34453;52.198;5.004;2023-04-23T07:51:42;100649.59;;;12.48;100.00
48668;BME280;34453;52.198;5.004;2023-04-23T07:54:08;100658.81;;;12.52;100.00
48668;BME280;34453;52.198;5.004;2023-04-23T07:56:34;100663.88;;;12.54;100.00
48668;BME280;34453;52.198;5.004;2023-04-23T07:59:00;100657.69;;;12.63;100.00
48668;BME280;34453;52.198;5.004;2023-04-23T08:01:26;100657.75;;;12.79;100.00
48668;BME280;34453;52.198;5.004;2023-04-23T08:03:52;100664.47;;;12.82;100.00
48668;BME280;34453;52.198;5.004;2023-04-23T08:06:20;100658.88;;;12.77;100.00
48668;BME280;34453;52.198;5.004;2023-04-23T08:08:46;100654.44;;;12.77;100.00
48668;BME280;34453;52.198;5.004;2023-04-23T08:11:11;100655.59;;;12.75;100.00
48668;BME280;34453;52.198;5.004;2023-04-23T08:13:36;100651.66;;;12.71;100.00
48668;BME280;34453;52.198;5.004;2023-04-23T08:16:02;100653.97;;;12.82;100.00
48668;BME280;34453;52.198;5.004;2023-04-23T08:18:29;100648.25;;;12.86;100.00
48668;BME280;34453;52.198;5.004;2023-04-23T08:20:54;100633.97;;;12.89;100.00
48668;BME280;34453;52.198;5.004;2023-04-23T08:23:23;100637.13;;;13.01;100.00
48668;BME280;34453;52.198;5.004;2023-04-23T08:25:48;100629.25;;;13.01;100.00
48668;BME280;34453;52.198;5.004;2023-04-23T08:28:14;100633.38;;;13.12;100.00
48668;BME280;34453;52.198;5.004;2023-04-23T08:30:40;100639.75;;;13.17;100.00
48668;BME280;34453;52.198;5.004;2023-04-23T08:33:05;100628.09;;;13.20;100.00
48668;BME280;34453;52.198;5.004;2023-04-23T08:35:31;100641.09;;;13.38;100.00
48668;BME280;34453;52.198;5.004;2023-04-23T08:37:56;100645.72;;;13.44;100.00
48668;BME280;34453;52.198;5.004;2023-04-23T08:40:22;100642.59;;;13.48;100.00
48668;BME280;34453;52.198;5.004;2023-04-23T08:42:50;100639.31;;;13.46;100.00
48668;BME280;34453;52.198;5.004;2023-04-23T08:45:20;100630.44;;;13.56;100.00
48668;BME280;34453;52.198;5.004;2023-04-23T08:47:46;100626.66;;;13.42;100.00
48668;BME280;34453;52.198;5.004;2023-04-23T08:50:18;100642.75;;;13.55;100.00
48668;BME280;34453;52.198;5.004;2023-04-23T08:52:54;100625.16;;;13.56;100.00
48668;BME280;34453;52.198;5.004;2023-04-23T08:55:21;100626.81;;;13.48;100.00
48668;BME280;34453;52.198;5.004;2023-04-23T08:57:48;100633.88;;;13.73;100.00
48668;BME280;34453;52.198;5.004;2023-04-23T09:00:15;100624.31;;;13.88;100.00
48668;BME280;34453;52.198;5.004;2023-04-23T09:02:43;100638.22;;;14.05;100.00
48668;BME280;34453;52.198;5.004;2023-04-23T09:05:08;100621.78;;;14.11;100.00
48668;BME280;34453;52.198;5.004;2023-04-23T09:07:35;100632.03;;;13.81;100.00
48668;BME280;34453;52.198;5.004;2023-04-23T09:10:04;100634.19;;;13.86;100.00
48668;BME280;34453;52.198;5.004;2023-04-23T09:12:31;100644.03;;;13.76;100.00
48668;BME280;34453;52.198;5.004;2023-04-23T09:14:59;100626.22;;;14.02;100.00
48668;BME280;34453;52.198;5.004;2023-04-23T09:17:27;100621.88;;;14.34;100.00
48668;BME280;34453;52.198;5.004;2023-04-23T09:19:54;100619.19;;;14.42;100.00
48668;BME280;34453;52.198;5.004;2023-04-23T09:25:06;100623.34;;;14.28;100.00
48668;BME280;34453;52.198;5.004;2023-04-23T09:27:32;100622.16;;;14.39;100.00
48668;BME280;34453;52.198;5.004;2023-04-23T09:29:59;100620.78;;;14.60;100.00
48668;BME280;34453;52.198;5.004;2023-04-23T09:32:36;100611.91;;;14.61;100.00
48668;BME280;34453;52.198;5.004;2023-04-23T09:35:03;100610.59;;;14.57;100.00
48668;BME280;34453;52.198;5.004;2023-04-23T09:37:29;100622.72;;;14.66;100.00
48668;BME280;34453;52.198;5.004;2023-04-23T09:39:58;100595.09;;;14.54;100.00
48668;BME280;34453;52.198;5.004;2023-04-23T09:42:23;100605.34;;;14.57;100.00
48668;BME280;34453;52.198;5.004;2023-04-23T09:45:01;100606.00;;;14.50;100.00
48668;BME280;34453;52.198;5.004;2023-04-23T09:47:31;100605.13;;;14.66;100.00
48668;BME280;34453;52.198;5.004;2023-04-23T09:49:58;100607.19;;;14.79;100.00
48668;BME280;34453;52.198;5.004;2023-04-23T09:52:23;100598.47;;;14.79;100.00
48668;BME280;34453;52.198;5.004;2023-04-23T09:54:49;100602.03;;;14.86;100.00
48668;BME280;34453;52.198;5.004;2023-04-23T09:57:15;100606.31;;;14.87;100.00
48668;BME280;34453;52.198;5.004;2023-04-23T09:59:40;100601.50;;;14.90;100.00
48668;BME280;34453;52.198;5.004;2023-04-23T10:02:07;100612.16;;;14.97;100.00
48668;BME280;34453;52.198;5.004;2023-04-23T10:04:34;100601.16;;;15.17;100.00
48668;BME280;34453;52.198;5.004;2023-04-23T10:07:01;100596.22;;;15.13;100.00
48668;BME280;34453;52.198;5.004;2023-04-23T10:09:28;100597.06;;;14.91;100.00
48668;BME280;34453;52.198;5.004;2023-04-23T10:11:58;100593.91;;;15.19;100.00
48668;BME280;34453;52.198;5.004;2023-04-23T10:14:25;100595.91;;;15.17;100.00
48668;BME280;34453;52.198;5.004;2023-04-23T10:16:56;100590.63;;;14.93;100.00
48668;BME280;34453;52.198;5.004;2023-04-23T10:19:23;100595.41;;;15.13;100.00
48668;BME280;34453;52.198;5.004;2023-04-23T10:21:52;100582.63;;;15.25;100.00
48668;BME280;34453;52.198;5.004;2023-04-23T10:24:25;100586.00;;;15.71;100.00
48668;BME280;34453;52.198;5.004;2023-04-23T10:26:56;100592.66;;;15.82;100.00
48668;BME280;34453;52.198;5.004;2023-04-23T10:29:27;100584.44;;;15.62;100.00
48668;BME280;34453;52.198;5.004;2023-04-23T10:31:55;100577.69;;;15.45;100.00
48668;BME280;34453;52.198;5.004;2023-04-23T10:34:23;100575.56;;;15.25;100.00
48668;BME280;34453;52.198;5.004;2023-04-23T10:36:50;100570.00;;;15.20;100.00
48668;BME280;34453;52.198;5.004;2023-04-23T10:39:22;100575.13;;;15.37;100.00
48668;BME280;34453;52.198;5.004;2023-04-23T10:41:48;100573.00;;;15.17;100.00
48668;BME280;34453;52.198;5.004;2023-04-23T10:44:14;100562.72;;;15.22;100.00
48668;BME280;34453;52.198;5.004;2023-04-23T10:46:56;100564.91;;;15.57;100.00
48668;BME280;34453;52.198;5.004;2023-04-23T10:49:25;100553.19;;;15.89;100.00
48668;BME280;34453;52.198;5.004;2023-04-23T10:52:02;100556.94;;;15.94;100.00
48668;BME280;34453;52.198;5.004;2023-04-23T10:54:32;100550.28;;;15.84;100.00
48668;BME280;34453;52.198;5.004;2023-04-23T10:57:00;100552.19;;;15.90;100.00
48668;BME280;34453;52.198;5.004;2023-04-23T10:59:26;100550.25;;;15.54;100.00
48668;BME280;34453;52.198;5.004;2023-04-23T11:01:55;100546.44;;;15.57;100.00
48668;BME280;34453;52.198;5.004;2023-04-23T11:04:22;100545.19;;;15.67;100.00
48668;BME280;34453;52.198;5.004;2023-04-23T11:09:48;100538.53;;;15.71;100.00
48668;BME280;34453;52.198;5.004;2023-04-23T11:14:58;100531.56;;;15.79;100.00
48668;BME280;34453;52.198;5.004;2023-04-23T11:20:12;100519.53;;;15.61;100.00
48668;BME280;34453;52.198;5.004;2023-04-23T11:22:41;100521.75;;;15.72;100.00
48668;BME280;34453;52.198;5.004;2023-04-23T11:25:09;100513.34;;;15.84;100.00
48668;BME280;34453;52.198;5.004;2023-04-23T11:27:37;100503.72;;;15.76;100.00
48668;BME280;34453;52.198;5.004;2023-04-23T11:30:04;100504.59;;;15.98;100.00
48668;BME280;34453;52.198;5.004;2023-04-23T11:32:29;100493.34;;;16.26;100.00
48668;BME280;34453;52.198;5.004;2023-04-23T11:34:56;100485.38;;;16.19;100.00
48668;BME280;34453;52.198;5.004;2023-04-23T11:37:23;100493.56;;;16.09;100.00
48668;BME280;34453;52.198;5.004;2023-04-23T11:39:49;100482.72;;;16.19;100.00
48668;BME280;34453;52.198;5.004;2023-04-23T11:42:16;100471.59;;;16.24;100.00
48668;BME280;34453;52.198;5.004;2023-04-23T11:44:44;100471.03;;;16.28;100.00
48668;BME280;34453;52.198;5.004;2023-04-23T11:47:11;100468.03;;;16.31;100.00
48668;BME280;34453;52.198;5.004;2023-04-23T11:49:41;100468.97;;;16.24;100.00
48668;BME280;34453;52.198;5.004;2023-04-23T11:52:07;100459.88;;;16.11;100.00
48668;BME280;34453;52.198;5.004;2023-04-23T11:54:33;100461.13;;;15.94;100.00
48668;BME280;34453;52.198;5.004;2023-04-23T11:57:00;100452.94;;;15.89;100.00
48668;BME280;34453;52.198;5.004;2023-04-23T11:59:26;100456.78;;;15.86;100.00
48668;BME280;34453;52.198;5.004;2023-04-23T12:01:54;100448.06;;;15.86;100.00
48668;BME280;34453;52.198;5.004;2023-04-23T12:04:21;100447.50;;;15.90;100.00
48668;BME280;34453;52.198;5.004;2023-04-23T12:06:49;100445.03;;;15.89;100.00
48668;BME280;34453;52.198;5.004;2023-04-23T12:09:17;100446.06;;;15.88;100.00
48668;BME280;34453;52.198;5.004;2023-04-23T12:11:44;100441.66;;;15.95;100.00
48668;BME280;34453;52.198;5.004;2023-04-23T12:14:11;100446.56;;;15.98;100.00
48668;BME280;34453;52.198;5.004;2023-04-23T12:16:42;100432.16;;;16.01;100.00
48668;BME280;34453;52.198;5.004;2023-04-23T12:19:18;100438.28;;;16.23;100.00
48668;BME280;34453;52.198;5.004;2023-04-23T12:21:50;100428.44;;;16.53;100.00
48668;BME280;34453;52.198;5.004;2023-04-23T12:24:22;100420.22;;;16.41;100.00
48668;BME280;34453;52.198;5.004;2023-04-23T12:26:49;100423.97;;;16.32;100.00
48668;BME280;34453;52.198;5.004;2023-04-23T12:29:17;100423.66;;;16.42;100.00
48668;BME280;34453;52.198;5.004;2023-04-23T12:31:42;100424.59;;;16.34;100.00
48668;BME280;34453;52.198;5.004;2023-04-23T12:34:09;100423.25;;;16.45;100.00
48668;BME280;34453;52.198;5.004;2023-04-23T12:36:36;100400.81;;;16.55;100.00
48668;BME280;34453;52.198;5.004;2023-04-23T12:39:37;100403.78;;;16.74;100.00
48668;BME280;34453;52.198;5.004;2023-04-23T12:42:05;100407.13;;;16.54;100.00
48668;BME280;34453;52.198;5.004;2023-04-23T12:44:34;100404.72;;;16.81;100.00
48668;BME280;34453;52.198;5.004;2023-04-23T12:47:02;100405.00;;;16.71;100.00
48668;BME280;34453;52.198;5.004;2023-04-23T12:49:29;100392.72;;;16.57;100.00
48668;BME280;34453;52.198;5.004;2023-04-23T12:51:55;100382.81;;;16.37;100.00
48668;BME280;34453;52.198;5.004;2023-04-23T12:54:26;100388.03;;;16.31;100.00